Time;durP1;ratioP1;P1;durP2;ratioP2;P2;SDS_P1;SDS_P2;PMS_P1;PMS_P2;Temp;Humidity;BMP_temperature;BMP_pressure;BME280_temperature;BME280_humidity;BME280_pressure;Samples;Min_cycle;Max_cycle;Signal;HPM_P1;HPM_P2
2021/03/15 00:00:18;;;;;;;29.92;13.13;;;;;;;;;;4273693;33;20121;-77
2021/03/15 00:02:50;;;;;;;27.25;14.95;;;;;;;;;;4280049;33;20065;-77
2021/03/15 00:05:20;;;;;;;29.10;13.73;;;;;;;;;;4276968;33;20105;-78
2021/03/15 00:07:48;;;;;;;28.75;12.63;;;;;;;;;;4274210;33;20137;-77
2021/03/15 00:10:16;;;;;;;31.35;13.30;;;;;;;;;;4274511;33;20057;-77
2021/03/15 00:12:44;;;;;;;29.98;13.05;;;;;;;;;;4279623;33;20578;-78
2021/03/15 00:15:14;;;;;;;30.05;12.73;;;;;;;;;;4269607;33;20057;-78
2021/03/15 00:17:43;;;;;;;36.63;12.13;;;;;;;;;;4278521;33;20073;-76
2021/03/15 00:20:12;;;;;;;30.23;14.40;;;;;;;;;;4277356;33;20163;-77
2021/03/15 00:22:41;;;;;;;27.37;13.35;;;;;;;;;;4280434;33;20135;-76
2021/03/15 00:25:10;;;;;;;29.52;13.20;;;;;;;;;;4280876;33;20111;-77
2021/03/15 00:27:39;;;;;;;29.20;11.70;;;;;;;;;;4277784;33;20160;-78
2021/03/15 00:30:08;;;;;;;27.95;16.80;;;;;;;;;;4278074;33;20109;-77
2021/03/15 00:32:37;;;;;;;28.80;12.23;;;;;;;;;;4278840;33;20070;-77
2021/03/15 00:35:06;;;;;;;24.75;10.85;;;;;;;;;;4279616;33;20053;-78
2021/03/15 00:37:34;;;;;;;33.08;12.10;;;;;;;;;;4273718;33;20520;-77
2021/03/15 00:40:03;;;;;;;24.35;11.35;;;;;;;;;;4279528;33;20061;-78
2021/03/15 00:42:31;;;;;;;36.97;21.90;;;;;;;;;;4272809;33;20123;-78
2021/03/15 00:45:00;;;;;;;33.13;11.85;;;;;;;;;;4271432;33;20545;-77
2021/03/15 00:47:28;;;;;;;32.22;16.20;;;;;;;;;;4274624;33;20124;-77
2021/03/15 00:49:57;;;;;;;25.83;11.55;;;;;;;;;;4280495;33;20076;-77
2021/03/15 00:52:26;;;;;;;19.50;10.10;;;;;;;;;;4279316;33;20060;-78
2021/03/15 00:54:54;;;;;;;28.20;19.62;;;;;;;;;;4278857;33;20076;-77
2021/03/15 00:57:23;;;;;;;43.25;21.50;;;;;;;;;;4274894;33;20435;-78
2021/03/15 00:59:51;;;;;;;41.60;23.65;;;;;;;;;;4275500;33;20071;-77
2021/03/15 01:02:19;;;;;;;47.65;27.48;;;;;;;;;;4276507;33;20127;-78
2021/03/15 01:04:48;;;;;;;41.22;29.33;;;;;;;;;;4273053;33;20100;-77
2021/03/15 01:07:16;;;;;;;22.60;12.40;;;;;;;;;;4266841;33;20775;-77
2021/03/15 01:09:45;;;;;;;26.75;10.60;;;;;;;;;;4281457;33;20113;-76
2021/03/15 01:12:13;;;;;;;27.13;11.50;;;;;;;;;;4275839;33;20083;-76
2021/03/15 01:14:43;;;;;;;25.98;11.20;;;;;;;;;;4274689;33;20053;-77
2021/03/15 01:17:12;;;;;;;32.47;11.23;;;;;;;;;;4276305;33;20046;-77
2021/03/15 01:19:40;;;;;;;26.35;9.88;;;;;;;;;;4282229;33;20076;-77
2021/03/15 01:22:09;;;;;;;26.50;9.27;;;;;;;;;;4278226;33;20487;-79
2021/03/15 01:24:37;;;;;;;33.55;10.70;;;;;;;;;;4270166;33;20515;-79
2021/03/15 01:27:05;;;;;;;28.30;16.17;;;;;;;;;;4272545;33;20041;-77
2021/03/15 01:29:35;;;;;;;20.58;10.50;;;;;;;;;;4277531;33;20079;-77
2021/03/15 01:32:02;;;;;;;19.60;9.15;;;;;;;;;;4277963;33;20563;-77
2021/03/15 01:34:31;;;;;;;23.20;9.70;;;;;;;;;;4270294;33;20444;-77
2021/03/15 01:37:04;;;;;;;18.62;9.07;;;;;;;;;;4273711;33;20049;-77
2021/03/15 01:39:32;;;;;;;31.52;10.25;;;;;;;;;;4279730;33;20087;-77
2021/03/15 01:42:01;;;;;;;20.15;8.68;;;;;;;;;;4279212;33;20231;-78
2021/03/15 01:44:29;;;;;;;20.85;7.97;;;;;;;;;;4272163;33;20114;-77
2021/03/15 01:46:57;;;;;;;23.73;8.05;;;;;;;;;;4270226;33;20112;-77
2021/03/15 01:49:25;;;;;;;26.95;9.32;;;;;;;;;;4280093;33;20509;-77
2021/03/15 01:51:54;;;;;;;20.52;9.60;;;;;;;;;;4275955;33;20049;-77
2021/03/15 01:54:22;;;;;;;25.52;9.10;;;;;;;;;;4263099;33;20104;-77
2021/03/15 01:56:50;;;;;;;39.40;27.75;;;;;;;;;;4275835;33;20139;-78
2021/03/15 01:59:20;;;;;;;27.62;9.35;;;;;;;;;;4276830;33;20428;-76
2021/03/15 02:01:48;;;;;;;21.87;8.55;;;;;;;;;;4270777;33;20499;-77
2021/03/15 02:04:17;;;;;;;23.10;8.40;;;;;;;;;;4268707;33;20154;-76
2021/03/15 02:06:45;;;;;;;21.90;8.63;;;;;;;;;;4279447;33;20061;-78
2021/03/15 02:09:14;;;;;;;20.45;8.52;;;;;;;;;;4274644;33;20046;-77
2021/03/15 02:11:57;;;;;;;24.08;8.00;;;;;;;;;;4278547;33;20053;-77
2021/03/15 02:14:44;;;;;;;23.83;9.50;;;;;;;;;;4268608;33;20137;-77
2021/03/15 02:17:31;;;;;;;19.37;7.55;;;;;;;;;;4272963;33;20560;-77
2021/03/15 02:20:18;;;;;;;24.27;8.57;;;;;;;;;;4271452;33;20223;-77
2021/03/15 02:22:48;;;;;;;19.23;10.18;;;;;;;;;;4268435;33;20138;-77
2021/03/15 02:25:35;;;;;;;24.80;9.00;;;;;;;;;;4272608;33;20061;-77
2021/03/15 02:28:22;;;;;;;19.52;8.45;;;;;;;;;;4279608;33;20083;-77
2021/03/15 02:31:09;;;;;;;25.40;8.93;;;;;;;;;;4274329;33;20525;-78
2021/03/15 02:33:46;;;;;;;26.00;9.13;;;;;;;;;;4274335;33;20056;-77
2021/03/15 02:36:15;;;;;;;28.80;8.57;;;;;;;;;;4269584;33;20152;-77
2021/03/15 02:38:45;;;;;;;26.00;8.93;;;;;;;;;;4277045;33;20117;-77
2021/03/15 02:41:15;;;;;;;22.80;8.43;;;;;;;;;;4268407;33;20195;-79
2021/03/15 02:43:54;;;;;;;23.17;7.43;;;;;;;;;;4271332;33;20077;-77
2021/03/15 02:46:24;;;;;;;23.70;7.90;;;;;;;;;;4273609;33;20435;-77
2021/03/15 02:48:54;;;;;;;21.62;8.00;;;;;;;;;;4277685;33;20101;-76
2021/03/15 02:51:26;;;;;;;23.98;8.38;;;;;;;;;;4274083;33;20117;-77
2021/03/15 02:53:55;;;;;;;31.73;9.13;;;;;;;;;;4277533;33;20104;-78
2021/03/15 02:56:25;;;;;;;25.08;7.70;;;;;;;;;;4269733;33;21449;-77
2021/03/15 02:58:58;;;;;;;24.63;7.50;;;;;;;;;;4289607;33;20488;-77
2021/03/15 03:01:26;;;;;;;18.55;7.87;;;;;;;;;;4271196;33;20160;-77
2021/03/15 03:03:55;;;;;;;20.98;7.55;;;;;;;;;;4279265;33;20456;-76
2021/03/15 03:06:27;;;;;;;20.88;7.47;;;;;;;;;;4271949;33;20433;-77
2021/03/15 03:08:56;;;;;;;28.23;7.82;;;;;;;;;;4263017;33;20745;-77
2021/03/15 03:11:27;;;;;;;26.73;7.53;;;;;;;;;;4634995;27;20075;-78
2021/03/15 03:13:56;;;;;;;23.25;7.47;;;;;;;;;;4242708;33;20062;-77
2021/03/15 03:16:26;;;;;;;21.95;6.93;;;;;;;;;;4246931;33;20089;-76
2021/03/15 03:18:55;;;;;;;16.15;6.20;;;;;;;;;;4243420;33;20477;-77
2021/03/15 03:21:25;;;;;;;24.85;6.57;;;;;;;;;;4317784;27;20370;-78
2021/03/15 03:23:54;;;;;;;17.92;6.70;;;;;;;;;;4270889;33;20096;-78
2021/03/15 03:26:27;;;;;;;16.02;6.20;;;;;;;;;;4265695;33;20073;-77
2021/03/15 03:28:55;;;;;;;15.85;6.22;;;;;;;;;;4281926;33;20473;-77
2021/03/15 03:31:29;;;;;;;21.85;6.25;;;;;;;;;;4274493;33;20451;-77
2021/03/15 03:33:59;;;;;;;19.62;6.25;;;;;;;;;;4274841;33;20057;-77
2021/03/15 03:36:28;;;;;;;21.12;6.20;;;;;;;;;;4281722;33;20231;-77
2021/03/15 03:38:56;;;;;;;15.50;5.90;;;;;;;;;;4275457;33;20117;-77
2021/03/15 03:41:24;;;;;;;21.25;6.50;;;;;;;;;;4276481;33;20146;-77
2021/03/15 03:44:06;;;;;;;22.37;6.30;;;;;;;;;;4271340;33;20132;-77
2021/03/15 03:46:35;;;;;;;21.45;6.72;;;;;;;;;;4268926;33;20161;-77
2021/03/15 03:49:05;;;;;;;17.50;6.05;;;;;;;;;;4274726;33;20118;-77
2021/03/15 03:51:40;;;;;;;19.30;6.87;;;;;;;;;;4266645;33;20077;-77
2021/03/15 03:54:11;;;;;;;21.12;6.50;;;;;;;;;;4276900;33;20147;-78
2021/03/15 03:56:42;;;;;;;17.85;6.53;;;;;;;;;;4281756;33;20123;-77
2021/03/15 03:59:11;;;;;;;22.05;7.10;;;;;;;;;;4270850;33;20396;-77
2021/03/15 04:01:43;;;;;;;24.30;7.07;;;;;;;;;;4281924;33;20124;-76
2021/03/15 04:04:13;;;;;;;21.58;6.47;;;;;;;;;;4276395;33;20174;-77
2021/03/15 04:06:41;;;;;;;21.20;5.87;;;;;;;;;;4268175;33;20483;-79
2021/03/15 04:09:13;;;;;;;21.48;5.75;;;;;;;;;;4277826;33;20080;-76
2021/03/15 04:11:48;;;;;;;22.17;6.47;;;;;;;;;;4266132;33;20089;-76
2021/03/15 04:14:42;;;;;;;16.27;5.32;;;;;;;;;;4268630;33;20132;-77
2021/03/15 04:17:11;;;;;;;23.75;6.18;;;;;;;;;;4270471;33;20450;-78
2021/03/15 04:19:40;;;;;;;19.45;5.93;;;;;;;;;;4268889;33;20116;-76
2021/03/15 04:22:10;;;;;;;16.30;5.53;;;;;;;;;;4269629;33;20108;-77
2021/03/15 04:24:39;;;;;;;17.80;5.30;;;;;;;;;;4274806;33;20105;-76
2021/03/15 04:27:08;;;;;;;19.00;5.35;;;;;;;;;;4274157;33;20108;-76
2021/03/15 04:29:37;;;;;;;18.02;5.55;;;;;;;;;;4272858;33;20084;-78
2021/03/15 04:32:06;;;;;;;16.87;5.32;;;;;;;;;;4270574;33;20104;-78
2021/03/15 04:34:35;;;;;;;14.90;5.05;;;;;;;;;;4266946;33;20117;-77
2021/03/15 04:37:04;;;;;;;19.83;5.68;;;;;;;;;;4270022;33;20120;-78
2021/03/15 04:39:34;;;;;;;17.42;4.90;;;;;;;;;;4284097;33;20135;-77
2021/03/15 04:42:03;;;;;;;19.12;4.87;;;;;;;;;;4278167;33;20139;-78
2021/03/15 04:44:32;;;;;;;11.12;4.22;;;;;;;;;;4267372;33;20101;-77
2021/03/15 04:47:02;;;;;;;11.95;4.20;;;;;;;;;;4273425;33;20171;-77
2021/03/15 04:49:31;;;;;;;14.13;4.28;;;;;;;;;;4277976;33;20061;-76
2021/03/15 04:52:00;;;;;;;12.88;4.12;;;;;;;;;;4273792;33;20558;-76
2021/03/15 04:54:29;;;;;;;16.77;4.45;;;;;;;;;;4265955;33;20578;-77
2021/03/15 04:56:59;;;;;;;16.08;5.40;;;;;;;;;;4272357;33;20101;-77
2021/03/15 04:59:28;;;;;;;21.30;5.15;;;;;;;;;;4277618;33;20476;-76
2021/03/15 05:01:58;;;;;;;17.08;4.55;;;;;;;;;;4273915;33;20152;-78
2021/03/15 05:04:26;;;;;;;15.25;4.18;;;;;;;;;;4270126;33;20050;-77
2021/03/15 05:06:55;;;;;;;14.73;5.05;;;;;;;;;;4280928;33;20427;-76
2021/03/15 05:09:24;;;;;;;15.48;5.05;;;;;;;;;;4272009;33;20104;-78
2021/03/15 05:11:52;;;;;;;13.20;5.10;;;;;;;;;;4268763;33;20580;-77
2021/03/15 05:14:20;;;;;;;14.70;4.20;;;;;;;;;;4270368;33;20353;-77
2021/03/15 05:16:48;;;;;;;15.25;5.43;;;;;;;;;;4272452;33;20514;-76
2021/03/15 05:19:17;;;;;;;17.20;5.20;;;;;;;;;;4273670;33;20057;-78
2021/03/15 05:21:46;;;;;;;13.68;5.87;;;;;;;;;;4294360;33;20061;-79
2021/03/15 05:24:16;;;;;;;16.48;6.18;;;;;;;;;;4272051;33;20128;-77
2021/03/15 05:26:44;;;;;;;17.60;5.93;;;;;;;;;;4286809;33;20263;-77
2021/03/15 05:29:13;;;;;;;17.58;6.85;;;;;;;;;;4280081;33;20049;-77
2021/03/15 05:31:45;;;;;;;10.57;6.22;;;;;;;;;;4270292;33;20124;-77
2021/03/15 05:34:14;;;;;;;13.38;6.68;;;;;;;;;;4269805;33;20046;-78
2021/03/15 05:36:43;;;;;;;12.63;6.47;;;;;;;;;;4272536;33;20057;-77
2021/03/15 05:39:10;;;;;;;18.27;6.90;;;;;;;;;;4286208;33;20083;-79
2021/03/15 05:41:44;;;;;;;11.18;6.70;;;;;;;;;;4286088;33;20084;-78
2021/03/15 05:44:16;;;;;;;14.73;6.80;;;;;;;;;;4271615;33;20574;-78
2021/03/15 05:46:55;;;;;;;16.25;6.93;;;;;;;;;;4272828;33;20054;-77
2021/03/15 05:49:45;;;;;;;17.12;7.32;;;;;;;;;;4268517;33;20900;-78
2021/03/15 05:52:16;;;;;;;17.92;7.28;;;;;;;;;;4267734;33;20581;-77
2021/03/15 05:55:03;;;;;;;20.17;7.10;;;;;;;;;;4270705;33;20158;-78
2021/03/15 05:57:32;;;;;;;15.23;6.68;;;;;;;;;;4269687;33;20132;-77
2021/03/15 06:00:19;;;;;;;18.80;7.45;;;;;;;;;;4272821;33;20542;-77
2021/03/15 06:03:00;;;;;;;14.25;7.25;;;;;;;;;;4276822;33;20350;-77
2021/03/15 06:05:29;;;;;;;15.77;8.10;;;;;;;;;;4271664;33;20096;-76
2021/03/15 06:08:07;;;;;;;22.30;8.93;;;;;;;;;;4281579;33;20141;-76
2021/03/15 06:10:36;;;;;;;;;;;;;;;;;;4285543;33;20443;-77
2021/03/15 06:13:14;;;;;;;20.48;9.02;;;;;;;;;;4257701;33;20067;-78
2021/03/15 06:15:43;;;;;;;15.32;8.55;;;;;;;;;;4272451;33;20180;-77
2021/03/15 06:18:13;;;;;;;20.48;8.80;;;;;;;;;;4275579;33;20498;-77
2021/03/15 06:20:42;;;;;;;17.62;9.23;;;;;;;;;;4270946;33;20528;-77
2021/03/15 06:23:15;;;;;;;18.55;9.38;;;;;;;;;;4269509;33;20065;-78
2021/03/15 06:25:47;;;;;;;17.92;9.50;;;;;;;;;;4272720;33;20585;-76
2021/03/15 06:28:16;;;;;;;15.18;9.30;;;;;;;;;;4272872;33;20227;-77
2021/03/15 06:30:45;;;;;;;19.70;9.82;;;;;;;;;;4265841;33;20131;-77
2021/03/15 06:33:16;;;;;;;19.45;9.73;;;;;;;;;;4264748;33;20065;-80
2021/03/15 06:35:46;;;;;;;23.75;9.13;;;;;;;;;;4273282;33;20108;-78
2021/03/15 06:38:16;;;;;;;18.77;8.68;;;;;;;;;;4267722;33;20109;-77
2021/03/15 06:40:59;;;;;;;20.20;8.38;;;;;;;;;;4267974;33;20192;-77
2021/03/15 06:43:27;;;;;;;20.35;9.00;;;;;;;;;;4271426;33;20421;-77
2021/03/15 06:45:56;;;;;;;18.85;8.38;;;;;;;;;;4270929;33;20660;-77
2021/03/15 06:48:25;;;;;;;16.35;8.30;;;;;;;;;;4266635;33;20093;-77
2021/03/15 06:50:54;;;;;;;15.23;8.20;;;;;;;;;;4278503;33;20361;-77
2021/03/15 06:53:22;;;;;;;14.07;7.22;;;;;;;;;;4268738;33;20092;-77
2021/03/15 06:55:52;;;;;;;17.73;7.68;;;;;;;;;;4274770;33;20128;-77
2021/03/15 06:58:19;;;;;;;13.98;8.70;;;;;;;;;;4266721;33;20120;-77
2021/03/15 07:00:48;;;;;;;14.43;9.43;;;;;;;;;;4275403;33;20653;-77
2021/03/15 07:03:22;;;;;;;15.38;10.45;;;;;;;;;;4273138;33;20109;-77
2021/03/15 07:05:57;;;;;;;18.90;10.38;;;;;;;;;;4273335;33;20658;-77
2021/03/15 07:08:26;;;;;;;17.83;10.48;;;;;;;;;;4281064;33;20125;-76
2021/03/15 07:10:55;;;;;;;16.73;11.75;;;;;;;;;;4273484;33;20076;-78
2021/03/15 07:13:24;;;;;;;18.42;8.90;;;;;;;;;;4281811;33;20421;-76
2021/03/15 07:15:53;;;;;;;18.05;9.50;;;;;;;;;;4273050;33;20440;-78
2021/03/15 07:18:22;;;;;;;34.10;27.60;;;;;;;;;;4275110;33;20689;-77
2021/03/15 07:20:55;;;;;;;33.28;29.95;;;;;;;;;;4276241;33;20061;-77
2021/03/15 07:23:39;;;;;;;47.55;42.40;;;;;;;;;;4275215;33;20117;-77
2021/03/15 07:26:10;;;;;;;40.15;36.20;;;;;;;;;;4276665;33;20126;-78
2021/03/15 07:28:38;;;;;;;39.97;36.13;;;;;;;;;;4280952;33;20423;-77
2021/03/15 07:31:18;;;;;;;20.23;7.32;;;;;;;;;;4271781;33;20113;-78
2021/03/15 07:34:07;;;;;;;12.15;6.80;;;;;;;;;;4269393;33;20175;-77
2021/03/15 07:36:45;;;;;;;53.20;48.03;;;;;;;;;;4261347;33;20716;-77
2021/03/15 07:39:14;;;;;;;12.90;6.65;;;;;;;;;;4269399;33;20507;-78
2021/03/15 07:41:51;;;;;;;18.23;7.30;;;;;;;;;;4272343;33;20196;-77
2021/03/15 07:44:30;;;;;;;17.87;6.90;;;;;;;;;;4276590;33;20050;-77
2021/03/15 07:46:59;;;;;;;15.57;7.55;;;;;;;;;;4276729;33;20788;-77
2021/03/15 07:49:28;;;;;;;16.67;7.95;;;;;;;;;;4273368;33;20105;-79
2021/03/15 07:51:58;;;;;;;21.15;12.63;;;;;;;;;;4271847;33;20104;-77
2021/03/15 07:54:32;;;;;;;32.25;22.08;;;;;;;;;;4270229;33;20598;-77
2021/03/15 07:57:13;;;;;;;15.25;8.10;;;;;;;;;;4280778;33;20057;-77
2021/03/15 07:59:51;;;;;;;18.90;8.20;;;;;;;;;;4280105;33;20117;-77
2021/03/15 08:02:24;;;;;;;15.80;7.30;;;;;;;;;;4288796;33;20050;-77
2021/03/15 08:04:53;;;;;;;19.12;6.72;;;;;;;;;;4292651;33;20096;-77
2021/03/15 08:07:22;;;;;;;12.90;5.68;;;;;;;;;;4291236;33;20057;-77
2021/03/15 08:09:55;;;;;;;26.20;16.20;;;;;;;;;;4285452;33;20061;-78
2021/03/15 08:12:24;;;;;;;;;;;;;;;;;;4280595;33;20449;-77
2021/03/15 08:14:59;;;;;;;15.40;5.70;;;;;;;;;;4284999;33;20034;-77
2021/03/15 08:17:29;;;;;;;15.63;9.27;;;;;;;;;;4283284;33;20073;-78
2021/03/15 08:19:58;;;;;;;14.93;9.18;;;;;;;;;;4283188;33;20095;-78
2021/03/15 08:22:28;;;;;;;12.23;5.28;;;;;;;;;;4282478;33;20054;-77
2021/03/15 08:24:57;;;;;;;27.73;18.35;;;;;;;;;;4280579;33;20069;-77
2021/03/15 08:27:27;;;;;;;17.55;8.98;;;;;;;;;;4281804;33;20069;-77
2021/03/15 08:29:56;;;;;;;12.18;5.12;;;;;;;;;;4281112;33;20067;-77
2021/03/15 08:32:26;;;;;;;23.00;10.38;;;;;;;;;;4280471;33;20054;-77
2021/03/15 08:34:54;;;;;;;33.90;27.45;;;;;;;;;;4281890;33;20413;-77
2021/03/15 08:37:42;;;;;;;18.27;8.75;;;;;;;;;;4281837;33;20069;-77
2021/03/15 08:40:13;;;;;;;14.10;6.82;;;;;;;;;;4277656;33;20640;-78
2021/03/15 08:42:41;;;;;;;30.30;25.58;;;;;;;;;;4281869;33;20065;-77
2021/03/15 08:45:29;;;;;;;32.42;29.52;;;;;;;;;;4285296;33;20180;-77
2021/03/15 08:48:00;;;;;;;19.92;17.98;;;;;;;;;;4283070;33;20066;-79
2021/03/15 08:50:35;;;;;;;10.52;5.93;;;;;;;;;;4280717;33;20413;-78
2021/03/15 08:53:04;;;;;;;11.27;5.65;;;;;;;;;;4286671;33;20111;-78
2021/03/15 08:55:41;;;;;;;13.32;3.72;;;;;;;;;;4275490;33;20101;-79
2021/03/15 08:58:28;;;;;;;13.30;3.40;;;;;;;;;;4281707;33;20068;-79
2021/03/15 09:00:56;;;;;;;10.27;3.15;;;;;;;;;;4282032;33;20049;-78
2021/03/15 09:03:43;;;;;;;12.37;3.40;;;;;;;;;;4287309;33;20049;-78
2021/03/15 09:06:11;;;;;;;9.55;3.25;;;;;;;;;;4285797;33;20061;-79
2021/03/15 09:08:59;;;;;;;12.25;3.30;;;;;;;;;;4280485;33;20578;-79
2021/03/15 09:11:44;;;;;;;12.70;3.65;;;;;;;;;;4282400;33;20125;-79
2021/03/15 09:14:16;;;;;;;10.13;3.72;;;;;;;;;;4283689;33;20531;-78
2021/03/15 09:16:57;;;;;;;8.13;3.03;;;;;;;;;;4297534;33;20163;-78
2021/03/15 09:19:33;;;;;;;11.95;4.30;;;;;;;;;;4289057;33;20065;-78
2021/03/15 09:22:06;;;;;;;10.60;3.25;;;;;;;;;;4277477;33;20127;-78
2021/03/15 09:24:35;;;;;;;9.70;3.17;;;;;;;;;;4281542;33;20128;-79
2021/03/15 09:27:26;;;;;;;8.55;3.08;;;;;;;;;;4291227;33;20407;-79
2021/03/15 09:29:56;;;;;;;10.00;2.83;;;;;;;;;;4280581;33;20132;-79
2021/03/15 09:32:35;;;;;;;7.07;2.90;;;;;;;;;;4285835;33;20076;-80
2021/03/15 09:35:20;;;;;;;8.55;3.03;;;;;;;;;;4282191;33;20061;-79
2021/03/15 09:37:52;;;;;;;9.80;3.25;;;;;;;;;;4277072;33;20062;-80
2021/03/15 09:40:23;;;;;;;9.75;3.12;;;;;;;;;;4291131;33;20168;-79
2021/03/15 09:42:51;;;;;;;7.57;2.83;;;;;;;;;;4287075;33;20059;-79
2021/03/15 09:45:26;;;;;;;9.13;3.15;;;;;;;;;;4282830;33;20049;-80
2021/03/15 09:47:54;;;;;;;9.48;3.00;;;;;;;;;;4276534;33;20439;-80
2021/03/15 09:50:31;;;;;;;8.52;2.90;;;;;;;;;;4290670;33;20606;-79
2021/03/15 09:53:11;;;;;;;9.32;3.25;;;;;;;;;;4284782;33;20124;-80
2021/03/15 09:55:40;;;;;;;9.75;3.35;;;;;;;;;;4272237;33;20184;-81
2021/03/15 09:58:09;;;;;;;9.05;3.37;;;;;;;;;;4276415;33;20148;-80
2021/03/15 10:00:37;;;;;;;13.32;3.55;;;;;;;;;;4281525;33;20406;-80
2021/03/15 10:03:06;;;;;;;6.45;2.87;;;;;;;;;;4285173;33;20041;-79
2021/03/15 10:05:38;;;;;;;9.95;3.15;;;;;;;;;;4277186;33;20410;-81
2021/03/15 10:08:13;;;;;;;13.45;3.60;;;;;;;;;;4277174;33;20583;-80
2021/03/15 10:10:44;;;;;;;9.65;2.90;;;;;;;;;;4279559;33;20120;-80
2021/03/15 10:13:20;;;;;;;33.67;4.35;;;;;;;;;;4279640;33;20735;-79
2021/03/15 10:15:49;;;;;;;9.15;3.33;;;;;;;;;;4277236;33;20823;-79
2021/03/15 10:18:21;;;;;;;7.55;2.95;;;;;;;;;;4281071;33;20112;-79
2021/03/15 10:20:51;;;;;;;10.30;3.40;;;;;;;;;;4287576;33;20057;-80
2021/03/15 10:23:21;;;;;;;8.77;2.87;;;;;;;;;;4286839;33;20534;-79
2021/03/15 10:25:58;;;;;;;10.73;3.17;;;;;;;;;;4288416;33;20378;-79
2021/03/15 10:28:27;;;;;;;11.73;3.40;;;;;;;;;;4286931;33;20045;-79
2021/03/15 10:31:18;;;;;;;11.07;3.40;;;;;;;;;;4269613;33;20049;-80
2021/03/15 10:33:50;;;;;;;9.40;3.35;;;;;;;;;;4277728;33;20083;-79
2021/03/15 10:36:22;;;;;;;9.30;3.10;;;;;;;;;;4268412;33;20057;-79
2021/03/15 10:38:55;;;;;;;8.43;2.87;;;;;;;;;;4276537;33;20165;-79
2021/03/15 10:41:24;;;;;;;8.30;2.72;;;;;;;;;;4281086;33;20072;-79
2021/03/15 10:44:00;;;;;;;8.32;3.20;;;;;;;;;;4289242;33;20111;-80
2021/03/15 10:46:30;;;;;;;8.88;2.70;;;;;;;;;;4277879;33;20038;-80
2021/03/15 10:49:01;;;;;;;8.38;2.95;;;;;;;;;;4279257;33;20172;-79
2021/03/15 10:51:41;;;;;;;8.43;2.70;;;;;;;;;;4286157;33;20049;-79
2021/03/15 10:54:29;;;;;;;9.20;3.22;;;;;;;;;;4282960;33;20124;-79
2021/03/15 10:56:57;;;;;;;;;;;;;;;;;;4279206;33;20074;-78
2021/03/15 10:59:32;;;;;;;8.50;3.28;;;;;;;;;;4278889;33;19947;-79
2021/03/15 11:02:01;;;;;;;11.12;3.03;;;;;;;;;;4287473;33;20069;-80
2021/03/15 11:04:35;;;;;;;8.65;3.10;;;;;;;;;;4290064;33;20042;-80
2021/03/15 11:07:22;;;;;;;19.40;3.78;;;;;;;;;;4280747;33;20606;-80
2021/03/15 11:09:55;;;;;;;10.50;3.33;;;;;;;;;;4282340;33;20650;-81
2021/03/15 11:12:38;;;;;;;12.27;3.62;;;;;;;;;;4287791;33;20053;-79
2021/03/15 11:15:15;;;;;;;8.13;3.08;;;;;;;;;;4288408;33;20123;-80
2021/03/15 11:17:57;;;;;;;11.05;3.00;;;;;;;;;;4282435;33;20203;-79
2021/03/15 11:20:44;;;;;;;18.02;3.62;;;;;;;;;;4281886;33;20467;-79
2021/03/15 11:23:13;;;;;;;12.48;2.90;;;;;;;;;;4278559;33;20081;-80
2021/03/15 11:25:42;;;;;;;8.57;3.08;;;;;;;;;;4275255;33;20134;-79
2021/03/15 11:28:14;;;;;;;9.90;2.85;;;;;;;;;;4292857;33;20050;-79
2021/03/15 11:30:43;;;;;;;11.00;3.12;;;;;;;;;;4283752;33;20131;-79
2021/03/15 11:33:14;;;;;;;10.20;3.35;;;;;;;;;;4286829;33;20551;-79
2021/03/15 11:35:45;;;;;;;9.32;2.80;;;;;;;;;;4279108;33;20111;-80
2021/03/15 11:38:13;;;;;;;9.95;2.95;;;;;;;;;;4283425;33;20057;-79
2021/03/15 11:40:43;;;;;;;9.98;6.53;;;;;;;;;;4276018;33;20440;-79
2021/03/15 11:43:13;;;;;;;17.12;5.72;;;;;;;;;;4270374;33;20085;-78
2021/03/15 11:45:43;;;;;;;13.55;4.57;;;;;;;;;;4281642;33;20144;-78
2021/03/15 11:48:11;;;;;;;13.48;4.60;;;;;;;;;;4286476;33;20092;-78
2021/03/15 11:50:40;;;;;;;11.32;2.70;;;;;;;;;;4280981;33;20503;-78
2021/03/15 11:53:11;;;;;;;10.52;3.40;;;;;;;;;;4280772;33;20077;-79
2021/03/15 11:55:40;;;;;;;8.52;3.62;;;;;;;;;;4287129;33;20566;-78
2021/03/15 11:58:08;;;;;;;9.45;3.30;;;;;;;;;;4280702;33;20227;-78
2021/03/15 12:00:37;;;;;;;7.97;3.00;;;;;;;;;;4279032;33;20061;-78
2021/03/15 12:03:07;;;;;;;9.50;3.10;;;;;;;;;;4285152;33;20124;-78
2021/03/15 12:05:38;;;;;;;9.30;2.90;;;;;;;;;;4267707;33;20583;-78
2021/03/15 12:08:08;;;;;;;8.38;3.37;;;;;;;;;;4283884;33;20112;-78
2021/03/15 12:10:36;;;;;;;32.75;4.68;;;;;;;;;;4281785;33;20199;-79
2021/03/15 12:13:06;;;;;;;11.52;3.00;;;;;;;;;;4282730;33;20049;-79
2021/03/15 12:15:35;;;;;;;11.65;2.75;;;;;;;;;;4286903;33;20337;-78
2021/03/15 12:18:08;;;;;;;8.88;2.70;;;;;;;;;;4281108;33;20053;-79
2021/03/15 12:20:38;;;;;;;9.15;3.00;;;;;;;;;;4277120;33;20463;-78
2021/03/15 12:23:06;;;;;;;10.15;2.95;;;;;;;;;;4277497;33;20085;-78
2021/03/15 12:25:36;;;;;;;8.02;2.65;;;;;;;;;;4294311;33;20122;-78
2021/03/15 12:28:05;;;;;;;9.05;2.95;;;;;;;;;;4281502;33;20069;-78
2021/03/15 12:30:36;;;;;;;12.43;3.12;;;;;;;;;;4280342;33;20169;-79
2021/03/15 12:33:06;;;;;;;9.43;3.22;;;;;;;;;;4287562;33;20091;-79
2021/03/15 12:35:35;;;;;;;15.35;3.78;;;;;;;;;;4291896;33;20087;-78
2021/03/15 12:38:04;;;;;;;13.20;3.00;;;;;;;;;;4288475;33;20066;-78
2021/03/15 12:40:33;;;;;;;8.40;2.90;;;;;;;;;;4285699;33;20143;-78
2021/03/15 12:43:05;;;;;;;9.32;2.75;;;;;;;;;;4290831;33;20049;-78
2021/03/15 12:45:41;;;;;;;10.10;3.10;;;;;;;;;;4288161;33;20139;-78
2021/03/15 12:48:10;;;;;;;10.38;3.62;;;;;;;;;;4280047;33;20058;-79
2021/03/15 12:50:39;;;;;;;9.18;3.37;;;;;;;;;;4278274;33;20057;-80
2021/03/15 12:53:07;;;;;;;12.37;3.58;;;;;;;;;;4275388;33;20412;-79
2021/03/15 12:55:37;;;;;;;10.50;3.25;;;;;;;;;;4282156;33;20501;-78
2021/03/15 12:58:06;;;;;;;11.73;3.53;;;;;;;;;;4284045;33;20100;-79
2021/03/15 13:00:34;;;;;;;10.52;3.80;;;;;;;;;;4295187;33;20057;-79
2021/03/15 13:03:04;;;;;;;10.18;3.72;;;;;;;;;;4291020;33;20117;-78
2021/03/15 13:05:32;;;;;;;13.48;4.37;;;;;;;;;;4290948;33;20100;-81
2021/03/15 13:08:02;;;;;;;11.07;3.85;;;;;;;;;;4279658;33;20163;-78
2021/03/15 13:10:32;;;;;;;17.33;4.25;;;;;;;;;;4287553;33;20097;-78
2021/03/15 13:13:01;;;;;;;15.23;5.40;;;;;;;;;;4272624;33;20052;-79
2021/03/15 13:15:30;;;;;;;13.00;4.70;;;;;;;;;;4287503;33;20911;-78
2021/03/15 13:17:59;;;;;;;13.32;4.80;;;;;;;;;;4282681;33;20269;-78
2021/03/15 13:20:29;;;;;;;13.80;5.85;;;;;;;;;;4281218;33;20147;-79
2021/03/15 13:22:57;;;;;;;12.88;5.60;;;;;;;;;;4284829;33;20124;-79
2021/03/15 13:25:25;;;;;;;16.10;5.68;;;;;;;;;;4282366;33;20054;-79
2021/03/15 13:27:54;;;;;;;15.77;6.15;;;;;;;;;;4278468;33;20042;-79
2021/03/15 13:30:22;;;;;;;13.52;6.55;;;;;;;;;;4278853;33;20115;-78
2021/03/15 13:32:50;;;;;;;11.45;5.57;;;;;;;;;;4278719;33;20049;-78
2021/03/15 13:35:20;;;;;;;12.02;5.57;;;;;;;;;;4278124;33;20447;-78
2021/03/15 13:37:49;;;;;;;13.55;5.53;;;;;;;;;;4278426;33;20081;-78
2021/03/15 13:40:17;;;;;;;15.75;6.80;;;;;;;;;;4286249;33;20140;-78
2021/03/15 13:42:46;;;;;;;15.43;7.05;;;;;;;;;;4281632;33;20130;-79
2021/03/15 13:45:15;;;;;;;12.10;6.30;;;;;;;;;;4282559;33;20496;-78
2021/03/15 13:47:43;;;;;;;11.38;5.90;;;;;;;;;;4283250;33;20120;-77
2021/03/15 13:50:12;;;;;;;16.87;7.22;;;;;;;;;;4287984;33;20937;-78
2021/03/15 13:52:40;;;;;;;19.02;7.05;;;;;;;;;;4287442;33;20653;-78
2021/03/15 13:55:09;;;;;;;16.48;7.68;;;;;;;;;;4283040;33;20511;-78
2021/03/15 13:57:38;;;;;;;15.15;7.22;;;;;;;;;;4286069;33;20072;-78
2021/03/15 14:00:07;;;;;;;17.02;7.68;;;;;;;;;;4285138;33;20183;-78
2021/03/15 14:02:44;;;;;;;16.67;8.02;;;;;;;;;;4289966;33;20239;-78
2021/03/15 14:05:14;;;;;;;16.35;8.18;;;;;;;;;;4277315;33;20100;-77
2021/03/15 14:07:43;;;;;;;15.80;8.00;;;;;;;;;;4276716;33;20119;-78
2021/03/15 14:10:11;;;;;;;18.62;8.27;;;;;;;;;;4282734;33;20072;-78
2021/03/15 14:12:40;;;;;;;17.40;8.73;;;;;;;;;;4287687;33;20071;-81
2021/03/15 14:15:09;;;;;;;19.98;8.20;;;;;;;;;;4280785;33;20355;-79
2021/03/15 14:17:38;;;;;;;16.90;8.25;;;;;;;;;;4277619;33;20101;-78
2021/03/15 14:20:08;;;;;;;21.00;9.95;;;;;;;;;;4281192;33;20057;-77
2021/03/15 14:22:37;;;;;;;15.02;8.85;;;;;;;;;;4286878;33;20452;-78
2021/03/15 14:25:07;;;;;;;18.27;9.55;;;;;;;;;;4289864;33;20061;-80
2021/03/15 14:27:36;;;;;;;18.35;8.57;;;;;;;;;;4277588;33;20479;-79
2021/03/15 14:30:05;;;;;;;15.43;7.28;;;;;;;;;;4279590;33;20832;-79
2021/03/15 14:32:33;;;;;;;14.82;8.20;;;;;;;;;;4285205;33;20171;-78
2021/03/15 14:35:03;;;;;;;15.80;7.30;;;;;;;;;;4274462;33;20869;-79
2021/03/15 14:37:31;;;;;;;14.48;6.10;;;;;;;;;;4277027;33;20467;-79
2021/03/15 14:39:59;;;;;;;16.87;6.20;;;;;;;;;;4283206;33;20061;-81
2021/03/15 14:42:29;;;;;;;14.02;5.90;;;;;;;;;;4283272;33;20084;-78
2021/03/15 14:44:58;;;;;;;11.50;5.85;;;;;;;;;;4277442;33;20046;-79
2021/03/15 14:47:44;;;;;;;10.07;4.95;;;;;;;;;;4291084;33;20092;-79
2021/03/15 14:50:13;;;;;;;14.38;5.05;;;;;;;;;;4288720;33;20116;-78
2021/03/15 14:52:42;;;;;;;10.75;4.32;;;;;;;;;;4271548;33;20458;-78
2021/03/15 14:55:11;;;;;;;14.25;4.78;;;;;;;;;;4275386;33;20058;-78